Weather at Narrabri Airport

Public forecast

Using degrees Celsius for public forecast. Weather courtesy of forecast.io.

Closest aviation weather report (METAR) to Narrabri Airport

Closest report is Tamworth Airport, 69.6 nm (128.8 km) SE.

2022/12/10 01:30 (retrieved 34 minutes ago)

YSTW 100130Z AUTO 11004KT 9999 // SCT056 27/10 Q1014 RF000/0000

Closest aviation forecast (TAF) to Narrabri Airport

Forecast is more than 6 hours old.

Closest forecast is Touho Airport, 1,011.2 nm (1,872.8 km) ENE.

2022/12/09 18:00 (retrieved 8 hours ago)

TAF NWWU 091700Z 0918/1018 VRB02KT 9999 SCT020 SCT040 BECMG 0922/0924 14012KT TEMPO 1000/1008 SHRA BKN014 FEW020TCU BECMG 1007/1009 VRB02KT